sensor_id;sensor_type;location;lat;lon;timestamp;temperature;humidity
23010;DHT22;11671;49.990;8.028;2022-12-07T00:01:29;4.90;99.90
23010;DHT22;11671;49.990;8.028;2022-12-07T00:03:56;4.90;99.90
23010;DHT22;11671;49.990;8.028;2022-12-07T00:06:26;4.90;99.90
23010;DHT22;11671;49.990;8.028;2022-12-07T00:08:52;4.80;99.90
23010;DHT22;11671;49.990;8.028;2022-12-07T00:11:21;4.80;99.90
23010;DHT22;11671;49.990;8.028;2022-12-07T00:13:55;4.90;99.90
23010;DHT22;11671;49.990;8.028;2022-12-07T00:16:23;4.90;99.90
23010;DHT22;11671;49.990;8.028;2022-12-07T00:18:48;4.90;99.90
23010;DHT22;11671;49.990;8.028;2022-12-07T00:21:20;4.90;99.90
23010;DHT22;11671;49.990;8.028;2022-12-07T00:23:47;5.00;99.90
23010;DHT22;11671;49.990;8.028;2022-12-07T00:26:22;5.10;99.90
23010;DHT22;11671;49.990;8.028;2022-12-07T00:28:50;5.10;99.90
23010;DHT22;11671;49.990;8.028;2022-12-07T00:31:18;5.00;99.90
23010;DHT22;11671;49.990;8.028;2022-12-07T00:33:44;5.00;99.90
23010;DHT22;11671;49.990;8.028;2022-12-07T00:36:12;5.00;99.90
23010;DHT22;11671;49.990;8.028;2022-12-07T00:38:38;5.00;99.90
23010;DHT22;11671;49.990;8.028;2022-12-07T00:41:07;5.00;99.90
23010;DHT22;11671;49.990;8.028;2022-12-07T00:43:33;4.90;99.90
23010;DHT22;11671;49.990;8.028;2022-12-07T00:45:58;4.90;99.90
23010;DHT22;11671;49.990;8.028;2022-12-07T00:48:24;4.90;99.90
23010;DHT22;11671;49.990;8.028;2022-12-07T00:50:50;4.90;99.90
23010;DHT22;11671;49.990;8.028;2022-12-07T00:53:16;4.80;99.90
23010;DHT22;11671;49.990;8.028;2022-12-07T00:55:42;4.80;99.90
23010;DHT22;11671;49.990;8.028;2022-12-07T00:58:08;4.70;99.90
23010;DHT22;11671;49.990;8.028;2022-12-07T01:00:35;4.70;99.90
23010;DHT22;11671;49.990;8.028;2022-12-07T01:03:01;4.60;99.90
23010;DHT22;11671;49.990;8.028;2022-12-07T01:05:27;4.60;99.90
23010;DHT22;11671;49.990;8.028;2022-12-07T01:07:53;4.50;99.90
23010;DHT22;11671;49.990;8.028;2022-12-07T01:10:18;4.60;99.90
23010;DHT22;11671;49.990;8.028;2022-12-07T01:12:44;4.60;99.90
23010;DHT22;11671;49.990;8.028;2022-12-07T01:15:10;4.60;99.90
23010;DHT22;11671;49.990;8.028;2022-12-07T01:17:35;4.60;99.90
23010;DHT22;11671;49.990;8.028;2022-12-07T01:20:02;4.60;99.90
23010;DHT22;11671;49.990;8.028;2022-12-07T01:22:27;4.60;99.90
23010;DHT22;11671;49.990;8.028;2022-12-07T01:24:53;4.70;99.90
23010;DHT22;11671;49.990;8.028;2022-12-07T01:27:19;4.70;99.90
23010;DHT22;11671;49.990;8.028;2022-12-07T01:29:44;4.80;99.90
23010;DHT22;11671;49.990;8.028;2022-12-07T01:32:10;4.80;99.90
23010;DHT22;11671;49.990;8.028;2022-12-07T01:34:35;4.90;99.90
23010;DHT22;11671;49.990;8.028;2022-12-07T01:37:01;4.80;99.90
23010;DHT22;11671;49.990;8.028;2022-12-07T01:39:27;4.90;99.90
23010;DHT22;11671;49.990;8.028;2022-12-07T01:41:52;4.90;99.90
23010;DHT22;11671;49.990;8.028;2022-12-07T01:44:29;4.90;99.90
23010;DHT22;11671;49.990;8.028;2022-12-07T01:47:01;5.00;99.90
23010;DHT22;11671;49.990;8.028;2022-12-07T01:49:37;5.10;99.90
23010;DHT22;11671;49.990;8.028;2022-12-07T01:52:07;5.10;99.90
23010;DHT22;11671;49.990;8.028;2022-12-07T01:54:35;5.20;99.90
23010;DHT22;11671;49.990;8.028;2022-12-07T01:57:02;5.20;99.90
23010;DHT22;11671;49.990;8.028;2022-12-07T01:59:28;5.20;99.90
23010;DHT22;11671;49.990;8.028;2022-12-07T02:01:55;5.20;99.90
23010;DHT22;11671;49.990;8.028;2022-12-07T02:04:21;5.20;99.90
23010;DHT22;11671;49.990;8.028;2022-12-07T02:06:48;5.20;99.90
23010;DHT22;11671;49.990;8.028;2022-12-07T02:09:14;5.30;99.90
23010;DHT22;11671;49.990;8.028;2022-12-07T02:11:41;5.30;99.90
23010;DHT22;11671;49.990;8.028;2022-12-07T02:14:06;5.30;99.90
23010;DHT22;11671;49.990;8.028;2022-12-07T02:28:12;5.30;99.90
23010;DHT22;11671;49.990;8.028;2022-12-07T02:30:47;5.30;99.90
23010;DHT22;11671;49.990;8.028;2022-12-07T02:33:18;5.30;99.90
23010;DHT22;11671;49.990;8.028;2022-12-07T02:36:09;5.30;99.90
23010;DHT22;11671;49.990;8.028;2022-12-07T02:38:38;5.30;99.90
23010;DHT22;11671;49.990;8.028;2022-12-07T02:41:13;5.30;99.90
23010;DHT22;11671;49.990;8.028;2022-12-07T02:43:45;5.30;99.90
23010;DHT22;11671;49.990;8.028;2022-12-07T02:46:15;5.40;99.90
23010;DHT22;11671;49.990;8.028;2022-12-07T02:48:43;5.40;99.90
23010;DHT22;11671;49.990;8.028;2022-12-07T02:51:09;5.50;99.90
23010;DHT22;11671;49.990;8.028;2022-12-07T02:53:38;5.50;99.90
23010;DHT22;11671;49.990;8.028;2022-12-07T03:02:06;5.50;99.90
23010;DHT22;11671;49.990;8.028;2022-12-07T03:05:06;5.60;99.90
23010;DHT22;11671;49.990;8.028;2022-12-07T03:13:28;5.30;99.90
23010;DHT22;11671;49.990;8.028;2022-12-07T03:15:58;5.30;99.90
23010;DHT22;11671;49.990;8.028;2022-12-07T03:18:29;5.30;99.90
23010;DHT22;11671;49.990;8.028;2022-12-07T03:21:00;5.30;99.90
23010;DHT22;11671;49.990;8.028;2022-12-07T03:23:27;5.40;99.90
23010;DHT22;11671;49.990;8.028;2022-12-07T03:25:57;5.40;99.90
23010;DHT22;11671;49.990;8.028;2022-12-07T03:28:28;5.40;99.90
23010;DHT22;11671;49.990;8.028;2022-12-07T03:33:33;5.50;99.90
23010;DHT22;11671;49.990;8.028;2022-12-07T03:36:13;5.50;99.90
23010;DHT22;11671;49.990;8.028;2022-12-07T03:38:50;5.60;99.90
23010;DHT22;11671;49.990;8.028;2022-12-07T03:41:22;5.50;99.90
23010;DHT22;11671;49.990;8.028;2022-12-07T03:43:49;5.50;99.90
23010;DHT22;11671;49.990;8.028;2022-12-07T03:46:37;5.60;99.90
23010;DHT22;11671;49.990;8.028;2022-12-07T03:52:18;5.60;99.90
23010;DHT22;11671;49.990;8.028;2022-12-07T03:55:20;5.60;99.90
23010;DHT22;11671;49.990;8.028;2022-12-07T03:57:51;5.60;99.90
23010;DHT22;11671;49.990;8.028;2022-12-07T04:00:18;5.60;99.90
23010;DHT22;11671;49.990;8.028;2022-12-07T04:02:44;5.60;99.90
23010;DHT22;11671;49.990;8.028;2022-12-07T04:05:10;5.60;99.90
23010;DHT22;11671;49.990;8.028;2022-12-07T04:07:36;5.60;99.90
23010;DHT22;11671;49.990;8.028;2022-12-07T04:10:02;5.60;99.90
23010;DHT22;11671;49.990;8.028;2022-12-07T04:12:28;5.70;99.90
23010;DHT22;11671;49.990;8.028;2022-12-07T04:14:54;5.70;99.90
23010;DHT22;11671;49.990;8.028;2022-12-07T04:17:19;5.70;99.90
23010;DHT22;11671;49.990;8.028;2022-12-07T04:19:45;5.70;99.90
23010;DHT22;11671;49.990;8.028;2022-12-07T04:22:10;5.70;99.90
23010;DHT22;11671;49.990;8.028;2022-12-07T04:24:36;5.70;99.90
23010;DHT22;11671;49.990;8.028;2022-12-07T04:27:01;5.70;99.90
23010;DHT22;11671;49.990;8.028;2022-12-07T04:29:27;5.70;99.90
23010;DHT22;11671;49.990;8.028;2022-12-07T04:31:53;5.60;99.90
23010;DHT22;11671;49.990;8.028;2022-12-07T04:34:19;5.60;99.90
23010;DHT22;11671;49.990;8.028;2022-12-07T04:36:46;5.70;99.90
23010;DHT22;11671;49.990;8.028;2022-12-07T04:39:36;5.70;99.90
23010;DHT22;11671;49.990;8.028;2022-12-07T04:42:01;5.70;99.90
23010;DHT22;11671;49.990;8.028;2022-12-07T04:44:28;5.70;99.90
23010;DHT22;11671;49.990;8.028;2022-12-07T04:46:54;5.70;99.90
23010;DHT22;11671;49.990;8.028;2022-12-07T04:49:20;5.70;99.90
23010;DHT22;11671;49.990;8.028;2022-12-07T04:51:46;5.70;99.90
23010;DHT22;11671;49.990;8.028;2022-12-07T04:54:14;5.70;99.90
23010;DHT22;11671;49.990;8.028;2022-12-07T04:56:40;5.70;99.90
23010;DHT22;11671;49.990;8.028;2022-12-07T04:59:06;5.70;99.90
23010;DHT22;11671;49.990;8.028;2022-12-07T05:01:32;5.80;99.90
23010;DHT22;11671;49.990;8.028;2022-12-07T05:03:59;5.80;99.90
23010;DHT22;11671;49.990;8.028;2022-12-07T05:06:24;5.80;99.90
23010;DHT22;11671;49.990;8.028;2022-12-07T05:08:50;5.90;99.90
23010;DHT22;11671;49.990;8.028;2022-12-07T05:11:16;5.90;99.90
23010;DHT22;11671;49.990;8.028;2022-12-07T05:14:01;5.90;99.90
23010;DHT22;11671;49.990;8.028;2022-12-07T05:16:27;5.90;99.90
23010;DHT22;11671;49.990;8.028;2022-12-07T05:18:53;5.90;99.90
23010;DHT22;11671;49.990;8.028;2022-12-07T05:21:18;5.90;99.90
23010;DHT22;11671;49.990;8.028;2022-12-07T05:23:44;5.90;99.90
23010;DHT22;11671;49.990;8.028;2022-12-07T05:26:09;5.90;99.90
23010;DHT22;11671;49.990;8.028;2022-12-07T05:28:35;5.90;99.90
23010;DHT22;11671;49.990;8.028;2022-12-07T05:31:01;6.00;99.90
23010;DHT22;11671;49.990;8.028;2022-12-07T05:33:26;6.00;99.90
23010;DHT22;11671;49.990;8.028;2022-12-07T05:35:52;6.00;99.90
23010;DHT22;11671;49.990;8.028;2022-12-07T05:38:18;6.10;99.90
23010;DHT22;11671;49.990;8.028;2022-12-07T05:40:43;6.10;99.90
23010;DHT22;11671;49.990;8.028;2022-12-07T05:43:09;6.10;99.90
23010;DHT22;11671;49.990;8.028;2022-12-07T05:45:34;6.10;99.90
23010;DHT22;11671;49.990;8.028;2022-12-07T05:48:00;6.10;99.90
23010;DHT22;11671;49.990;8.028;2022-12-07T05:50:25;6.10;99.90
23010;DHT22;11671;49.990;8.028;2022-12-07T05:52:51;6.10;99.90
23010;DHT22;11671;49.990;8.028;2022-12-07T05:55:16;6.10;99.90
23010;DHT22;11671;49.990;8.028;2022-12-07T05:57:42;6.10;99.90
23010;DHT22;11671;49.990;8.028;2022-12-07T06:00:30;6.10;99.90
23010;DHT22;11671;49.990;8.028;2022-12-07T06:02:55;6.10;99.90
23010;DHT22;11671;49.990;8.028;2022-12-07T06:05:21;6.10;99.90
23010;DHT22;11671;49.990;8.028;2022-12-07T06:07:47;6.00;99.90
23010;DHT22;11671;49.990;8.028;2022-12-07T06:10:12;6.10;99.90
23010;DHT22;11671;49.990;8.028;2022-12-07T06:12:38;6.10;99.90
23010;DHT22;11671;49.990;8.028;2022-12-07T06:15:05;6.00;99.90
23010;DHT22;11671;49.990;8.028;2022-12-07T06:17:31;6.00;99.90
23010;DHT22;11671;49.990;8.028;2022-12-07T06:19:57;6.00;99.90
23010;DHT22;11671;49.990;8.028;2022-12-07T06:22:22;6.00;99.90
23010;DHT22;11671;49.990;8.028;2022-12-07T06:24:48;6.00;99.90
23010;DHT22;11671;49.990;8.028;2022-12-07T06:27:13;6.00;99.90
23010;DHT22;11671;49.990;8.028;2022-12-07T06:29:39;6.00;99.90
23010;DHT22;11671;49.990;8.028;2022-12-07T06:32:04;6.00;99.90
23010;DHT22;11671;49.990;8.028;2022-12-07T06:34:30;6.00;99.90
23010;DHT22;11671;49.990;8.028;2022-12-07T06:36:56;6.10;99.90
23010;DHT22;11671;49.990;8.028;2022-12-07T06:39:24;6.10;99.90
23010;DHT22;11671;49.990;8.028;2022-12-07T06:41:50;6.10;99.90
23010;DHT22;11671;49.990;8.028;2022-12-07T06:44:17;6.10;99.90
23010;DHT22;11671;49.990;8.028;2022-12-07T06:46:42;6.10;99.90
23010;DHT22;11671;49.990;8.028;2022-12-07T06:49:08;6.10;99.90
23010;DHT22;11671;49.990;8.028;2022-12-07T06:51:33;6.10;99.90
23010;DHT22;11671;49.990;8.028;2022-12-07T06:54:04;6.20;99.90
23010;DHT22;11671;49.990;8.028;2022-12-07T06:56:30;6.20;99.90
23010;DHT22;11671;49.990;8.028;2022-12-07T06:58:55;6.40;99.90
23010;DHT22;11671;49.990;8.028;2022-12-07T07:01:21;6.50;99.90
23010;DHT22;11671;49.990;8.028;2022-12-07T07:03:47;6.50;99.90
23010;DHT22;11671;49.990;8.028;2022-12-07T07:06:13;6.60;99.90
23010;DHT22;11671;49.990;8.028;2022-12-07T07:08:39;6.60;99.90
23010;DHT22;11671;49.990;8.028;2022-12-07T07:11:05;6.60;99.90
23010;DHT22;11671;49.990;8.028;2022-12-07T07:13:31;6.60;99.90
23010;DHT22;11671;49.990;8.028;2022-12-07T07:15:56;6.60;99.90
23010;DHT22;11671;49.990;8.028;2022-12-07T07:18:22;6.60;99.90
23010;DHT22;11671;49.990;8.028;2022-12-07T07:20:48;6.60;99.90
23010;DHT22;11671;49.990;8.028;2022-12-07T07:23:13;6.60;99.90
23010;DHT22;11671;49.990;8.028;2022-12-07T07:25:39;6.60;99.90
23010;DHT22;11671;49.990;8.028;2022-12-07T07:28:05;6.60;99.90
23010;DHT22;11671;49.990;8.028;2022-12-07T07:30:30;6.60;99.90
23010;DHT22;11671;49.990;8.028;2022-12-07T07:32:57;6.60;99.90
23010;DHT22;11671;49.990;8.028;2022-12-07T07:35:24;6.60;99.90
23010;DHT22;11671;49.990;8.028;2022-12-07T07:37:50;6.50;99.90
23010;DHT22;11671;49.990;8.028;2022-12-07T07:40:15;6.50;99.90
23010;DHT22;11671;49.990;8.028;2022-12-07T07:42:41;6.50;99.90
23010;DHT22;11671;49.990;8.028;2022-12-07T07:45:06;6.50;99.90
23010;DHT22;11671;49.990;8.028;2022-12-07T07:47:32;6.50;99.90
23010;DHT22;11671;49.990;8.028;2022-12-07T07:49:58;6.90;99.90
23010;DHT22;11671;49.990;8.028;2022-12-07T07:52:23;6.90;99.90
23010;DHT22;11671;49.990;8.028;2022-12-07T07:54:49;6.90;99.90
23010;DHT22;11671;49.990;8.028;2022-12-07T07:57:16;6.90;99.90
23010;DHT22;11671;49.990;8.028;2022-12-07T07:59:42;6.80;99.90
23010;DHT22;11671;49.990;8.028;2022-12-07T08:02:14;6.80;99.90
23010;DHT22;11671;49.990;8.028;2022-12-07T08:04:40;6.80;99.90
23010;DHT22;11671;49.990;8.028;2022-12-07T08:07:05;6.90;99.90
23010;DHT22;11671;49.990;8.028;2022-12-07T08:09:31;6.70;99.90
23010;DHT22;11671;49.990;8.028;2022-12-07T08:11:57;6.80;99.90
23010;DHT22;11671;49.990;8.028;2022-12-07T08:14:22;6.70;99.90
23010;DHT22;11671;49.990;8.028;2022-12-07T08:16:49;6.80;99.90
23010;DHT22;11671;49.990;8.028;2022-12-07T08:19:14;6.90;99.90
23010;DHT22;11671;49.990;8.028;2022-12-07T08:21:40;6.90;99.90
23010;DHT22;11671;49.990;8.028;2022-12-07T08:24:05;6.80;99.90
23010;DHT22;11671;49.990;8.028;2022-12-07T08:26:31;6.70;99.90
23010;DHT22;11671;49.990;8.028;2022-12-07T08:28:56;6.60;99.90
23010;DHT22;11671;49.990;8.028;2022-12-07T08:31:22;6.60;99.90
23010;DHT22;11671;49.990;8.028;2022-12-07T08:33:47;6.80;99.90
23010;DHT22;11671;49.990;8.028;2022-12-07T08:36:14;6.80;99.90
23010;DHT22;11671;49.990;8.028;2022-12-07T08:38:40;6.90;99.90
23010;DHT22;11671;49.990;8.028;2022-12-07T08:41:07;6.90;99.90
23010;DHT22;11671;49.990;8.028;2022-12-07T08:43:32;7.00;99.90
23010;DHT22;11671;49.990;8.028;2022-12-07T08:46:18;7.10;99.90
23010;DHT22;11671;49.990;8.028;2022-12-07T08:49:32;7.40;99.90
23010;DHT22;11671;49.990;8.028;2022-12-07T08:51:39;7.80;99.90
23010;DHT22;11671;49.990;8.028;2022-12-07T08:54:09;8.00;99.90
23010;DHT22;11671;49.990;8.028;2022-12-07T08:56:35;8.20;99.90
23010;DHT22;11671;49.990;8.028;2022-12-07T08:59:01;8.30;99.90
23010;DHT22;11671;49.990;8.028;2022-12-07T09:01:27;8.30;99.90
23010;DHT22;11671;49.990;8.028;2022-12-07T09:03:53;8.30;99.90
23010;DHT22;11671;49.990;8.028;2022-12-07T09:06:18;8.30;99.90
23010;DHT22;11671;49.990;8.028;2022-12-07T09:08:47;8.30;99.90
23010;DHT22;11671;49.990;8.028;2022-12-07T09:11:15;8.20;99.90
23010;DHT22;11671;49.990;8.028;2022-12-07T09:13:41;8.10;99.90
23010;DHT22;11671;49.990;8.028;2022-12-07T09:16:06;8.10;99.90
23010;DHT22;11671;49.990;8.028;2022-12-07T09:18:32;8.10;99.90
23010;DHT22;11671;49.990;8.028;2022-12-07T09:20:57;8.10;99.90
23010;DHT22;11671;49.990;8.028;2022-12-07T09:23:23;8.10;99.90
23010;DHT22;11671;49.990;8.028;2022-12-07T09:25:48;8.10;99.90
23010;DHT22;11671;49.990;8.028;2022-12-07T09:28:14;8.00;99.90
23010;DHT22;11671;49.990;8.028;2022-12-07T09:30:46;8.10;99.90
23010;DHT22;11671;49.990;8.028;2022-12-07T09:33:24;8.20;99.90
23010;DHT22;11671;49.990;8.028;2022-12-07T09:35:51;8.50;99.90
23010;DHT22;11671;49.990;8.028;2022-12-07T09:38:18;8.60;99.90
23010;DHT22;11671;49.990;8.028;2022-12-07T09:40:44;8.60;99.90
23010;DHT22;11671;49.990;8.028;2022-12-07T09:43:28;8.70;99.90
23010;DHT22;11671;49.990;8.028;2022-12-07T09:45:55;8.70;99.90
23010;DHT22;11671;49.990;8.028;2022-12-07T09:48:33;8.60;99.90
23010;DHT22;11671;49.990;8.028;2022-12-07T09:51:01;8.60;99.90
23010;DHT22;11671;49.990;8.028;2022-12-07T09:53:27;8.70;99.90
23010;DHT22;11671;49.990;8.028;2022-12-07T09:55:53;8.90;99.90
23010;DHT22;11671;49.990;8.028;2022-12-07T09:58:28;9.00;99.90
23010;DHT22;11671;49.990;8.028;2022-12-07T10:00:58;9.10;99.90
23010;DHT22;11671;49.990;8.028;2022-12-07T10:03:27;9.10;99.90
23010;DHT22;11671;49.990;8.028;2022-12-07T10:05:53;9.00;99.90
23010;DHT22;11671;49.990;8.028;2022-12-07T10:08:19;8.90;99.90
23010;DHT22;11671;49.990;8.028;2022-12-07T10:10:52;8.90;99.90
23010;DHT22;11671;49.990;8.028;2022-12-07T10:16:00;8.80;99.90
23010;DHT22;11671;49.990;8.028;2022-12-07T10:18:30;8.80;99.90
23010;DHT22;11671;49.990;8.028;2022-12-07T10:23:36;8.90;99.90
23010;DHT22;11671;49.990;8.028;2022-12-07T10:26:25;8.90;99.90
23010;DHT22;11671;49.990;8.028;2022-12-07T10:28:53;9.00;99.90
23010;DHT22;11671;49.990;8.028;2022-12-07T10:31:19;9.20;99.90
23010;DHT22;11671;49.990;8.028;2022-12-07T10:33:51;9.20;99.90
23010;DHT22;11671;49.990;8.028;2022-12-07T10:36:21;9.10;99.90
23010;DHT22;11671;49.990;8.028;2022-12-07T10:38:53;9.00;99.90
23010;DHT22;11671;49.990;8.028;2022-12-07T10:41:23;8.90;99.90
23010;DHT22;11671;49.990;8.028;2022-12-07T10:43:50;8.90;99.90
23010;DHT22;11671;49.990;8.028;2022-12-07T10:48:37;9.00;99.90
23010;DHT22;11671;49.990;8.028;2022-12-07T10:51:08;9.10;99.90
23010;DHT22;11671;49.990;8.028;2022-12-07T11:01:55;9.70;99.90
23010;DHT22;11671;49.990;8.028;2022-12-07T11:04:43;9.90;99.90
23010;DHT22;11671;49.990;8.028;2022-12-07T11:07:14;10.00;99.90
23010;DHT22;11671;49.990;8.028;2022-12-07T11:10:05;10.00;99.90
23010;DHT22;11671;49.990;8.028;2022-12-07T11:13:28;9.90;99.90
23010;DHT22;11671;49.990;8.028;2022-12-07T11:18:49;10.00;99.90
23010;DHT22;11671;49.990;8.028;2022-12-07T11:21:27;9.90;99.90
23010;DHT22;11671;49.990;8.028;2022-12-07T11:24:30;9.70;99.90
23010;DHT22;11671;49.990;8.028;2022-12-07T11:30:23;9.60;99.90
23010;DHT22;11671;49.990;8.028;2022-12-07T11:33:02;9.70;99.90
23010;DHT22;11671;49.990;8.028;2022-12-07T11:38:13;9.50;99.90
23010;DHT22;11671;49.990;8.028;2022-12-07T11:40:42;9.30;99.90
23010;DHT22;11671;49.990;8.028;2022-12-07T11:43:21;9.20;99.90
23010;DHT22;11671;49.990;8.028;2022-12-07T11:45:58;9.10;99.90
23010;DHT22;11671;49.990;8.028;2022-12-07T11:48:35;9.00;99.90
23010;DHT22;11671;49.990;8.028;2022-12-07T11:51:07;8.90;99.90
23010;DHT22;11671;49.990;8.028;2022-12-07T11:53:53;8.90;99.90
23010;DHT22;11671;49.990;8.028;2022-12-07T11:56:23;8.90;99.90
23010;DHT22;11671;49.990;8.028;2022-12-07T12:01:35;9.10;99.90
23010;DHT22;11671;49.990;8.028;2022-12-07T12:06:39;9.20;99.90
23010;DHT22;11671;49.990;8.028;2022-12-07T12:09:31;9.20;99.90
23010;DHT22;11671;49.990;8.028;2022-12-07T12:20:35;8.90;99.90
23010;DHT22;11671;49.990;8.028;2022-12-07T12:23:13;8.90;99.90
23010;DHT22;11671;49.990;8.028;2022-12-07T12:25:49;8.90;99.90
23010;DHT22;11671;49.990;8.028;2022-12-07T12:28:39;8.80;99.90
23010;DHT22;11671;49.990;8.028;2022-12-07T12:33:38;8.60;99.90
23010;DHT22;11671;49.990;8.028;2022-12-07T12:39:15;8.90;99.90
23010;DHT22;11671;49.990;8.028;2022-12-07T12:47:01;9.10;99.90
23010;DHT22;11671;49.990;8.028;2022-12-07T12:50:11;9.30;99.90
23010;DHT22;11671;49.990;8.028;2022-12-07T12:57:35;9.70;99.90
23010;DHT22;11671;49.990;8.028;2022-12-07T13:00:24;9.70;99.90
23010;DHT22;11671;49.990;8.028;2022-12-07T13:02:54;9.50;99.90
23010;DHT22;11671;49.990;8.028;2022-12-07T13:05:31;9.40;99.90
23010;DHT22;11671;49.990;8.028;2022-12-07T13:26:03;9.20;99.90
23010;DHT22;11671;49.990;8.028;2022-12-07T13:28:36;9.10;99.90
23010;DHT22;11671;49.990;8.028;2022-12-07T13:31:14;9.00;99.90
23010;DHT22;11671;49.990;8.028;2022-12-07T13:33:45;9.00;99.90
23010;DHT22;11671;49.990;8.028;2022-12-07T13:36:29;9.00;99.90
23010;DHT22;11671;49.990;8.028;2022-12-07T13:38:58;8.90;99.90
23010;DHT22;11671;49.990;8.028;2022-12-07T13:41:28;8.70;99.90
23010;DHT22;11671;49.990;8.028;2022-12-07T13:44:01;8.70;99.90
23010;DHT22;11671;49.990;8.028;2022-12-07T13:49:26;8.60;99.90
23010;DHT22;11671;49.990;8.028;2022-12-07T13:51:52;8.50;99.90
23010;DHT22;11671;49.990;8.028;2022-12-07T13:54:19;8.50;99.90
23010;DHT22;11671;49.990;8.028;2022-12-07T13:56:51;8.40;99.90
23010;DHT22;11671;49.990;8.028;2022-12-07T13:59:22;8.30;99.90
23010;DHT22;11671;49.990;8.028;2022-12-07T14:01:50;8.30;99.90
23010;DHT22;11671;49.990;8.028;2022-12-07T14:04:32;8.30;99.90
23010;DHT22;11671;49.990;8.028;2022-12-07T14:06:59;8.30;99.90
23010;DHT22;11671;49.990;8.028;2022-12-07T14:09:27;8.40;99.90
23010;DHT22;11671;49.990;8.028;2022-12-07T14:11:55;8.50;99.90
23010;DHT22;11671;49.990;8.028;2022-12-07T14:14:30;8.50;99.90
23010;DHT22;11671;49.990;8.028;2022-12-07T14:22:09;8.60;99.90
23010;DHT22;11671;49.990;8.028;2022-12-07T14:24:44;8.60;99.90
23010;DHT22;11671;49.990;8.028;2022-12-07T14:27:21;8.50;99.90
23010;DHT22;11671;49.990;8.028;2022-12-07T14:29:48;8.50;99.90
23010;DHT22;11671;49.990;8.028;2022-12-07T14:34:39;8.30;99.90
23010;DHT22;11671;49.990;8.028;2022-12-07T14:37:07;8.30;99.90
23010;DHT22;11671;49.990;8.028;2022-12-07T14:39:33;8.20;99.90
23010;DHT22;11671;49.990;8.028;2022-12-07T14:41:58;8.10;99.90
23010;DHT22;11671;49.990;8.028;2022-12-07T14:44:24;8.10;99.90
23010;DHT22;11671;49.990;8.028;2022-12-07T14:46:49;8.00;99.90
23010;DHT22;11671;49.990;8.028;2022-12-07T14:49:15;7.90;99.90
23010;DHT22;11671;49.990;8.028;2022-12-07T14:51:41;7.80;99.90
23010;DHT22;11671;49.990;8.028;2022-12-07T14:54:16;7.80;99.90
23010;DHT22;11671;49.990;8.028;2022-12-07T14:56:42;7.70;99.90
23010;DHT22;11671;49.990;8.028;2022-12-07T14:59:09;7.70;99.90
23010;DHT22;11671;49.990;8.028;2022-12-07T15:01:35;7.70;99.90
23010;DHT22;11671;49.990;8.028;2022-12-07T15:04:01;7.70;99.90
23010;DHT22;11671;49.990;8.028;2022-12-07T15:06:26;7.60;99.90
23010;DHT22;11671;49.990;8.028;2022-12-07T15:08:52;7.50;99.90
23010;DHT22;11671;49.990;8.028;2022-12-07T15:11:18;7.50;99.90
23010;DHT22;11671;49.990;8.028;2022-12-07T15:13:43;7.50;99.90
23010;DHT22;11671;49.990;8.028;2022-12-07T15:16:42;7.50;99.90
23010;DHT22;11671;49.990;8.028;2022-12-07T15:19:16;7.50;99.90
23010;DHT22;11671;49.990;8.028;2022-12-07T15:21:42;7.60;99.90
23010;DHT22;11671;49.990;8.028;2022-12-07T15:24:10;7.60;99.90
23010;DHT22;11671;49.990;8.028;2022-12-07T15:26:36;7.70;99.90
23010;DHT22;11671;49.990;8.028;2022-12-07T15:29:02;7.70;99.90
23010;DHT22;11671;49.990;8.028;2022-12-07T15:31:28;7.80;99.90
23010;DHT22;11671;49.990;8.028;2022-12-07T15:33:54;7.90;99.90
23010;DHT22;11671;49.990;8.028;2022-12-07T15:36:21;7.80;99.90
23010;DHT22;11671;49.990;8.028;2022-12-07T15:38:47;7.70;99.90
23010;DHT22;11671;49.990;8.028;2022-12-07T15:41:13;7.70;99.90
23010;DHT22;11671;49.990;8.028;2022-12-07T15:43:39;7.60;99.90
23010;DHT22;11671;49.990;8.028;2022-12-07T15:46:23;7.60;99.90
23010;DHT22;11671;49.990;8.028;2022-12-07T15:48:49;7.50;99.90
23010;DHT22;11671;49.990;8.028;2022-12-07T15:51:15;7.50;99.90
23010;DHT22;11671;49.990;8.028;2022-12-07T15:53:40;7.40;99.90
23010;DHT22;11671;49.990;8.028;2022-12-07T15:56:07;7.40;99.90
23010;DHT22;11671;49.990;8.028;2022-12-07T15:58:33;7.30;99.90
23010;DHT22;11671;49.990;8.028;2022-12-07T16:00:58;7.20;99.90
23010;DHT22;11671;49.990;8.028;2022-12-07T16:03:24;7.10;99.90
23010;DHT22;11671;49.990;8.028;2022-12-07T16:05:49;7.00;99.90
23010;DHT22;11671;49.990;8.028;2022-12-07T16:08:15;6.90;99.90
23010;DHT22;11671;49.990;8.028;2022-12-07T16:10:44;6.80;99.90
23010;DHT22;11671;49.990;8.028;2022-12-07T16:13:10;6.70;99.90
23010;DHT22;11671;49.990;8.028;2022-12-07T16:15:42;6.70;99.90
23010;DHT22;11671;49.990;8.028;2022-12-07T16:18:08;6.60;99.90
23010;DHT22;11671;49.990;8.028;2022-12-07T16:20:34;6.60;99.90
23010;DHT22;11671;49.990;8.028;2022-12-07T16:23:00;6.60;99.90
23010;DHT22;11671;49.990;8.028;2022-12-07T16:25:25;6.60;99.90
23010;DHT22;11671;49.990;8.028;2022-12-07T16:27:51;6.60;99.90
23010;DHT22;11671;49.990;8.028;2022-12-07T16:30:17;6.60;99.90
23010;DHT22;11671;49.990;8.028;2022-12-07T16:32:43;6.60;99.90
23010;DHT22;11671;49.990;8.028;2022-12-07T16:35:09;6.60;99.90
23010;DHT22;11671;49.990;8.028;2022-12-07T16:37:35;6.70;99.90
23010;DHT22;11671;49.990;8.028;2022-12-07T16:40:00;6.70;99.90
23010;DHT22;11671;49.990;8.028;2022-12-07T16:42:26;6.70;99.90
23010;DHT22;11671;49.990;8.028;2022-12-07T16:44:54;6.60;99.90
23010;DHT22;11671;49.990;8.028;2022-12-07T16:47:19;6.60;99.90
23010;DHT22;11671;49.990;8.028;2022-12-07T16:49:45;6.60;99.90
23010;DHT22;11671;49.990;8.028;2022-12-07T16:52:10;6.60;99.90
23010;DHT22;11671;49.990;8.028;2022-12-07T16:54:36;6.60;99.90
23010;DHT22;11671;49.990;8.028;2022-12-07T16:57:01;6.60;99.90
23010;DHT22;11671;49.990;8.028;2022-12-07T16:59:27;6.60;99.90
23010;DHT22;11671;49.990;8.028;2022-12-07T17:01:52;6.60;99.90
23010;DHT22;11671;49.990;8.028;2022-12-07T17:04:18;6.60;99.90
23010;DHT22;11671;49.990;8.028;2022-12-07T17:06:43;6.60;99.90
23010;DHT22;11671;49.990;8.028;2022-12-07T17:09:09;6.60;99.90
23010;DHT22;11671;49.990;8.028;2022-12-07T17:11:37;6.50;99.90
23010;DHT22;11671;49.990;8.028;2022-12-07T17:14:02;6.50;99.90
23010;DHT22;11671;49.990;8.028;2022-12-07T17:16:46;6.50;99.90
23010;DHT22;11671;49.990;8.028;2022-12-07T17:19:13;6.50;99.90
23010;DHT22;11671;49.990;8.028;2022-12-07T17:21:40;6.50;99.90
23010;DHT22;11671;49.990;8.028;2022-12-07T17:24:08;6.40;99.90
23010;DHT22;11671;49.990;8.028;2022-12-07T17:26:34;6.40;99.90
23010;DHT22;11671;49.990;8.028;2022-12-07T17:29:01;6.40;99.90
23010;DHT22;11671;49.990;8.028;2022-12-07T17:31:26;6.40;99.90
23010;DHT22;11671;49.990;8.028;2022-12-07T17:33:52;6.30;99.90
23010;DHT22;11671;49.990;8.028;2022-12-07T17:36:21;6.30;99.90
23010;DHT22;11671;49.990;8.028;2022-12-07T17:38:47;6.30;99.90
23010;DHT22;11671;49.990;8.028;2022-12-07T17:41:17;6.30;99.90
23010;DHT22;11671;49.990;8.028;2022-12-07T17:44:02;6.40;99.90
23010;DHT22;11671;49.990;8.028;2022-12-07T17:46:29;6.40;99.90
23010;DHT22;11671;49.990;8.028;2022-12-07T17:48:55;6.40;99.90